createdAt,value
2022-10-22T00:01:03.362Z,31.50
2022-10-22T00:03:30.023Z,28.17
2022-10-22T00:05:56.736Z,27.17
2022-10-22T00:08:23.806Z,34.07
2022-10-22T00:10:50.553Z,36.97
2022-10-22T00:13:17.299Z,38.50
2022-10-22T00:15:44.054Z,32.80
2022-10-22T00:18:10.696Z,33.17
2022-10-22T00:20:37.329Z,35.00
2022-10-22T00:23:03.972Z,31.43
2022-10-22T00:25:30.929Z,35.07
2022-10-22T00:27:57.558Z,32.10
2022-10-22T00:30:24.316Z,30.63
2022-10-22T00:32:50.919Z,32.33
2022-10-22T00:35:17.609Z,31.50
2022-10-22T00:37:44.347Z,29.47
2022-10-22T00:40:11.462Z,31.17
2022-10-22T00:42:38.376Z,31.90
2022-10-22T00:45:11.236Z,30.73
2022-10-22T00:47:41.272Z,28.53
2022-10-22T00:50:09.684Z,31.17
2022-10-22T00:52:36.441Z,31.17
2022-10-22T00:55:03.204Z,28.63
2022-10-22T00:57:29.833Z,30.33
2022-10-22T00:59:56.536Z,33.53
2022-10-22T01:02:23.185Z,31.13
2022-10-22T01:04:49.824Z,31.33
2022-10-22T01:07:20.614Z,29.73
2022-10-22T01:09:47.458Z,31.60
2022-10-22T01:12:27.587Z,31.90
2022-10-22T01:14:54.383Z,27.83
2022-10-22T01:19:59.245Z,28.43
2022-10-22T01:22:33.517Z,33.17
2022-10-22T01:25:07.440Z,30.40
2022-10-22T01:27:43.646Z,29.87
2022-10-22T01:30:11.206Z,30.40
2022-10-22T01:32:42.565Z,33.53
2022-10-22T01:35:09.830Z,32.27
2022-10-22T01:37:42.249Z,35.77
2022-10-22T01:40:09.320Z,31.07
2022-10-22T01:42:35.987Z,33.10
2022-10-22T01:45:02.764Z,31.27
2022-10-22T01:47:37.862Z,33.53
2022-10-22T01:50:09.334Z,30.37
2022-10-22T01:52:48.486Z,31.50
2022-10-22T01:55:15.223Z,28.90
2022-10-22T01:57:42.163Z,31.47
2022-10-22T02:00:10.001Z,34.03
2022-10-22T02:02:36.737Z,35.93
2022-10-22T02:05:13.389Z,35.50
2022-10-22T02:07:42.527Z,38.67
2022-10-22T02:10:09.401Z,39.10
2022-10-22T02:12:36.047Z,36.30
2022-10-22T02:15:02.875Z,40.23
2022-10-22T02:17:30.130Z,37.00
2022-10-22T02:19:57.718Z,37.57
2022-10-22T02:22:24.946Z,35.67
2022-10-22T02:24:51.581Z,38.10
2022-10-22T02:27:21.658Z,34.17
2022-10-22T02:29:54.658Z,34.90
2022-10-22T02:32:22.366Z,34.43
2022-10-22T02:34:49.093Z,34.67
2022-10-22T02:37:15.777Z,34.33
2022-10-22T02:39:42.418Z,34.67
2022-10-22T02:42:09.027Z,34.53
2022-10-22T02:47:19.892Z,33.03
2022-10-22T02:49:46.626Z,33.93
2022-10-22T02:52:13.488Z,38.27
2022-10-22T02:54:40.104Z,36.70
2022-10-22T02:57:06.862Z,38.13
2022-10-22T02:59:34.121Z,36.57
2022-10-22T03:02:00.939Z,37.80
2022-10-22T03:04:27.544Z,38.27
2022-10-22T03:06:54.405Z,37.50
2022-10-22T03:09:24.096Z,34.07
2022-10-22T03:11:51.750Z,37.27
2022-10-22T03:14:18.503Z,38.60
2022-10-22T03:16:45.241Z,36.50
2022-10-22T03:19:11.916Z,34.87
2022-10-22T03:21:42.691Z,34.60
2022-10-22T03:24:12.046Z,34.13
2022-10-22T03:26:38.764Z,33.53
2022-10-22T03:29:05.449Z,33.20
2022-10-22T03:31:32.163Z,37.30
2022-10-22T03:33:58.932Z,34.00
2022-10-22T03:36:25.689Z,31.90
2022-10-22T03:38:52.420Z,33.40
2022-10-22T03:41:19.022Z,28.73
2022-10-22T03:43:50.018Z,30.73
2022-10-22T03:46:16.765Z,33.40
2022-10-22T03:48:43.465Z,31.43
2022-10-22T03:51:10.515Z,37.67
2022-10-22T03:53:37.233Z,32.50
2022-10-22T03:56:07.704Z,28.10
2022-10-22T03:58:34.406Z,28.73
2022-10-22T04:01:04.830Z,33.77
2022-10-22T04:03:31.592Z,34.03
2022-10-22T04:06:04.925Z,29.83
2022-10-22T04:08:32.192Z,35.50
2022-10-22T04:10:58.847Z,30.77
2022-10-22T04:13:25.587Z,29.07
2022-10-22T04:15:52.380Z,29.80
2022-10-22T04:18:19.933Z,34.17
2022-10-22T04:20:46.694Z,35.97
2022-10-22T04:23:13.537Z,34.33
2022-10-22T04:25:40.278Z,34.67
2022-10-22T04:28:08.269Z,34.53
2022-10-22T04:30:35.207Z,34.13
2022-10-22T04:33:01.967Z,36.30
2022-10-22T04:35:28.868Z,32.90
2022-10-22T04:37:55.859Z,33.77
2022-10-22T04:40:22.576Z,33.27
2022-10-22T04:42:49.347Z,35.27
2022-10-22T04:45:16.007Z,33.03
2022-10-22T04:47:42.942Z,36.20
2022-10-22T04:50:09.792Z,32.73
2022-10-22T04:52:36.529Z,34.50
2022-10-22T04:55:03.269Z,31.87
2022-10-22T05:00:16.732Z,31.03
2022-10-22T05:05:28.958Z,31.53
2022-10-22T05:07:55.581Z,36.83
2022-10-22T05:10:22.310Z,37.10
2022-10-22T05:12:49.014Z,33.97
2022-10-22T05:15:15.807Z,37.40
2022-10-22T05:17:42.751Z,35.73
2022-10-22T05:20:09.807Z,33.40
2022-10-22T05:22:36.439Z,35.83
2022-10-22T05:25:03.236Z,35.67
2022-10-22T05:27:29.982Z,30.40
2022-10-22T05:29:56.960Z,35.17
2022-10-22T05:32:23.615Z,33.87
2022-10-22T05:34:50.598Z,39.53
2022-10-22T05:37:17.255Z,42.00
2022-10-22T05:39:44.024Z,38.03
2022-10-22T05:42:10.672Z,41.63
2022-10-22T05:44:39.170Z,37.63
2022-10-22T05:47:06.198Z,40.30
2022-10-22T05:49:32.993Z,38.60
2022-10-22T05:51:59.790Z,45.07
2022-10-22T05:54:26.562Z,44.10
2022-10-22T05:56:53.244Z,39.60
2022-10-22T05:59:20.325Z,43.53
2022-10-22T06:01:47.066Z,43.43
2022-10-22T06:04:13.933Z,44.83
2022-10-22T06:06:44.628Z,42.73
2022-10-22T06:09:18.580Z,42.70
2022-10-22T06:11:46.312Z,40.53
2022-10-22T06:14:13.139Z,45.33
2022-10-22T06:16:39.897Z,45.57
2022-10-22T06:19:06.632Z,42.60
2022-10-22T06:21:33.573Z,49.60
2022-10-22T06:24:00.447Z,50.07
2022-10-22T06:26:27.407Z,50.93
2022-10-22T06:28:55.885Z,43.83
2022-10-22T06:31:23.036Z,44.10
2022-10-22T06:33:50.389Z,45.83
2022-10-22T06:36:18.884Z,46.03
2022-10-22T06:38:45.810Z,38.73
2022-10-22T06:41:13.335Z,39.53
2022-10-22T06:43:40.317Z,41.57
2022-10-22T06:46:08.899Z,39.33
2022-10-22T06:48:38.205Z,40.50
2022-10-22T06:51:05.819Z,40.07
2022-10-22T06:53:32.612Z,43.13
2022-10-22T06:55:59.516Z,39.73
2022-10-22T06:58:26.211Z,47.53
2022-10-22T07:01:03.261Z,41.93
2022-10-22T07:03:30.271Z,43.67
2022-10-22T07:05:59.257Z,43.73
2022-10-22T07:08:26.921Z,41.80
2022-10-22T07:10:54.047Z,40.47
2022-10-22T07:13:21.442Z,40.07
2022-10-22T07:15:55.231Z,43.63
2022-10-22T07:18:22.514Z,42.97
2022-10-22T07:20:49.505Z,41.77
2022-10-22T07:23:16.518Z,42.57
2022-10-22T07:25:43.387Z,42.53
2022-10-22T07:28:10.316Z,40.17
2022-10-22T07:30:37.073Z,43.53
2022-10-22T07:33:04.152Z,47.37
2022-10-22T07:35:30.893Z,48.30
2022-10-22T07:37:57.887Z,46.30
2022-10-22T07:40:24.792Z,45.57
2022-10-22T07:42:51.605Z,44.43
2022-10-22T07:45:18.255Z,43.73
2022-10-22T07:47:45.244Z,44.40
2022-10-22T07:50:12.007Z,46.03
2022-10-22T07:52:39.035Z,45.00
2022-10-22T07:55:06.256Z,48.97
2022-10-22T07:57:37.574Z,48.37
2022-10-22T08:00:05.145Z,44.53
2022-10-22T08:02:38.778Z,46.07
2022-10-22T08:05:06.068Z,45.30
2022-10-22T08:07:32.713Z,43.97
2022-10-22T08:09:59.538Z,47.40
2022-10-22T08:12:26.336Z,46.63
2022-10-22T08:14:53.250Z,46.23
2022-10-22T08:17:20.271Z,47.43
2022-10-22T08:19:47.080Z,47.03
2022-10-22T08:22:13.710Z,46.47
2022-10-22T08:24:41.176Z,45.07
2022-10-22T08:27:07.822Z,45.47
2022-10-22T08:29:34.865Z,50.87
2022-10-22T08:32:03.017Z,47.37
2022-10-22T08:34:30.073Z,47.90
2022-10-22T08:36:56.969Z,49.87
2022-10-22T08:39:23.948Z,50.63
2022-10-22T08:41:56.832Z,51.53
2022-10-22T08:44:28.511Z,52.97
2022-10-22T08:46:55.332Z,52.83
2022-10-22T08:49:29.046Z,51.40
2022-10-22T08:51:57.041Z,53.90
2022-10-22T08:54:42.475Z,56.30
2022-10-22T08:57:11.513Z,55.70
2022-10-22T08:59:38.860Z,55.83
2022-10-22T09:02:09.024Z,60.03
2022-10-22T09:04:41.838Z,57.13
2022-10-22T09:07:08.834Z,60.43
2022-10-22T09:09:36.456Z,58.67
2022-10-22T09:12:03.772Z,56.03
2022-10-22T09:14:30.539Z,56.97
2022-10-22T09:17:17.867Z,58.57
2022-10-22T09:19:54.414Z,61.63
2022-10-22T09:22:24.363Z,61.00
2022-10-22T09:25:00.223Z,56.70
2022-10-22T09:27:28.231Z,64.33
2022-10-22T09:29:55.089Z,60.33
2022-10-22T09:32:25.801Z,55.93
2022-10-22T09:34:55.207Z,63.30
2022-10-22T09:37:25.296Z,61.17
2022-10-22T09:39:52.131Z,65.10
2022-10-22T09:42:20.397Z,69.17
2022-10-22T09:44:54.170Z,57.17
2022-10-22T09:47:43.142Z,67.83
2022-10-22T09:50:30.279Z,58.30
2022-10-22T09:53:06.400Z,60.83
2022-10-22T09:55:33.422Z,64.53
2022-10-22T09:58:00.936Z,63.93
2022-10-22T10:00:27.936Z,62.40
2022-10-22T10:02:56.805Z,59.10
2022-10-22T10:05:30.395Z,58.20
2022-10-22T10:07:58.220Z,55.40
2022-10-22T10:10:29.245Z,62.70
2022-10-22T10:12:57.612Z,59.47
2022-10-22T10:15:25.869Z,56.10
2022-10-22T10:17:56.119Z,51.63
2022-10-22T10:20:26.874Z,47.93
2022-10-22T10:23:12.447Z,43.30
2022-10-22T10:25:45.285Z,46.30
2022-10-22T10:28:30.641Z,43.77
2022-10-22T10:31:06.774Z,45.33
2022-10-22T10:33:47.628Z,41.10
2022-10-22T10:36:19.766Z,40.93
2022-10-22T10:38:50.129Z,41.97
2022-10-22T10:41:33.066Z,41.17
2022-10-22T10:44:16.220Z,43.70
2022-10-22T10:46:52.289Z,45.47
2022-10-22T10:49:19.792Z,39.67
2022-10-22T10:51:48.934Z,35.87
2022-10-22T10:54:19.399Z,42.07
2022-10-22T10:57:00.855Z,38.10
2022-10-22T10:59:39.953Z,38.13
2022-10-22T11:02:25.705Z,31.30
2022-10-22T11:05:08.940Z,32.03
2022-10-22T11:07:37.161Z,34.70
2022-10-22T11:10:06.039Z,31.50
2022-10-22T11:12:36.882Z,31.90
2022-10-22T11:15:22.591Z,30.73
2022-10-22T11:17:50.583Z,31.10
2022-10-22T11:20:22.195Z,30.27
2022-10-22T11:23:16.741Z,31.20
2022-10-22T11:25:47.433Z,28.17
2022-10-22T11:28:20.488Z,28.37
2022-10-22T11:30:48.583Z,28.43
2022-10-22T11:33:16.966Z,25.20
2022-10-22T11:35:45.565Z,30.37
2022-10-22T11:38:13.542Z,29.80
2022-10-22T11:40:49.276Z,30.30
2022-10-22T11:43:29.582Z,30.73
2022-10-22T11:46:22.636Z,29.60
2022-10-22T11:49:03.401Z,34.10
2022-10-22T11:51:35.464Z,31.93
2022-10-22T11:54:03.061Z,35.63
2022-10-22T11:56:37.100Z,36.70
2022-10-22T11:59:04.037Z,43.33
2022-10-22T12:01:40.775Z,44.40
2022-10-22T12:04:17.877Z,46.70
2022-10-22T12:06:55.018Z,46.10
2022-10-22T12:09:22.670Z,47.73
2022-10-22T12:11:49.822Z,48.03
2022-10-22T12:14:31.851Z,52.73
2022-10-22T12:16:59.690Z,43.00
2022-10-22T12:19:27.532Z,51.10
2022-10-22T12:22:02.642Z,50.80
2022-10-22T12:24:30.683Z,59.30
2022-10-22T12:26:57.427Z,63.13
2022-10-22T12:29:25.783Z,72.47
2022-10-22T12:31:52.594Z,64.17
2022-10-22T12:34:21.840Z,67.40
2022-10-22T12:36:49.054Z,63.67
2022-10-22T12:39:16.817Z,73.77
2022-10-22T12:41:43.589Z,69.73
2022-10-22T12:44:11.521Z,65.87
2022-10-22T12:46:38.180Z,72.07
2022-10-22T12:49:06.192Z,67.67
2022-10-22T12:54:09.391Z,77.33
2022-10-22T12:56:36.807Z,76.17
2022-10-22T12:59:05.456Z,81.93
2022-10-22T13:01:36.622Z,79.13
2022-10-22T13:04:06.961Z,83.73
2022-10-22T13:06:34.233Z,80.80
2022-10-22T13:09:04.014Z,83.43
2022-10-22T13:11:34.295Z,89.53
2022-10-22T13:14:01.723Z,88.27
2022-10-22T13:16:30.311Z,95.90
2022-10-22T13:18:57.274Z,90.17
2022-10-22T13:21:26.417Z,80.17
2022-10-22T13:23:54.319Z,82.13
2022-10-22T13:26:21.089Z,74.97
2022-10-22T13:28:51.910Z,70.87
2022-10-22T13:31:19.872Z,78.43
2022-10-22T13:33:51.039Z,77.67
2022-10-22T13:36:17.911Z,74.47
2022-10-22T13:38:45.202Z,81.87
2022-10-22T13:44:10.285Z,74.13
2022-10-22T13:46:42.960Z,73.03
2022-10-22T13:49:40.434Z,75.63
2022-10-22T13:52:21.475Z,67.03
2022-10-22T13:54:48.284Z,67.17
2022-10-22T13:57:14.961Z,68.20
2022-10-22T13:59:42.697Z,67.20
2022-10-22T14:02:10.312Z,72.20
2022-10-22T14:04:37.620Z,63.67
2022-10-22T14:07:04.645Z,62.07
2022-10-22T14:09:34.206Z,66.67
2022-10-22T14:12:01.075Z,64.33
2022-10-22T14:14:28.025Z,64.07
2022-10-22T14:16:54.807Z,66.23
2022-10-22T14:19:21.663Z,61.77
2022-10-22T14:21:49.348Z,66.53
2022-10-22T14:24:16.184Z,62.13
2022-10-22T14:26:43.131Z,62.30
2022-10-22T14:29:11.490Z,62.37
2022-10-22T14:31:42.386Z,61.37
2022-10-22T14:34:13.268Z,62.13
2022-10-22T14:36:40.231Z,60.20
2022-10-22T14:39:07.095Z,66.77
2022-10-22T14:41:33.941Z,57.03
2022-10-22T14:44:02.035Z,58.63
2022-10-22T14:46:28.963Z,58.87
2022-10-22T14:48:56.322Z,63.70
2022-10-22T14:51:23.377Z,58.47
2022-10-22T14:53:50.661Z,61.37
2022-10-22T14:56:18.600Z,55.80
2022-10-22T14:58:45.838Z,61.87
2022-10-22T15:01:13.018Z,57.80
2022-10-22T15:03:39.905Z,55.70
2022-10-22T15:06:07.230Z,59.43
2022-10-22T15:08:34.068Z,64.17
2022-10-22T15:11:01.627Z,62.07
2022-10-22T15:13:29.258Z,53.30
2022-10-22T15:15:56.914Z,54.63
2022-10-22T15:18:23.926Z,54.80
2022-10-22T15:20:57.092Z,51.10
2022-10-22T15:23:24.129Z,52.60
2022-10-22T15:25:50.899Z,50.13
2022-10-22T15:28:17.803Z,60.00
2022-10-22T15:30:44.554Z,53.53
2022-10-22T15:33:11.581Z,54.40
2022-10-22T15:35:38.270Z,51.27
2022-10-22T15:38:09.226Z,53.57
2022-10-22T15:40:36.069Z,54.77
2022-10-22T15:43:02.896Z,57.10
2022-10-22T15:45:29.710Z,58.17
2022-10-22T15:47:56.382Z,56.33
2022-10-22T15:50:23.248Z,57.30
2022-10-22T15:52:49.982Z,56.57
2022-10-22T15:55:18.074Z,61.17
2022-10-22T15:57:45.099Z,58.57
2022-10-22T16:00:12.316Z,56.73
2022-10-22T16:02:39.056Z,64.13
2022-10-22T16:05:06.079Z,62.87
2022-10-22T16:07:32.770Z,66.83
2022-10-22T16:10:00.482Z,61.40
2022-10-22T16:12:27.210Z,72.67
2022-10-22T16:14:54.092Z,74.13
2022-10-22T16:17:20.834Z,77.87
2022-10-22T16:19:47.819Z,78.53
2022-10-22T16:22:15.781Z,77.77
2022-10-22T16:24:42.589Z,75.20
2022-10-22T16:27:09.880Z,71.67
2022-10-22T16:29:40.904Z,71.37
2022-10-22T16:32:08.185Z,85.87
2022-10-22T16:34:35.149Z,76.97
2022-10-22T16:37:02.790Z,75.57
2022-10-22T16:39:29.536Z,82.53
2022-10-22T16:41:56.362Z,77.10
2022-10-22T16:44:23.795Z,80.53
2022-10-22T16:46:50.559Z,79.87
2022-10-22T16:52:01.571Z,72.43
2022-10-22T16:54:29.305Z,73.40
2022-10-22T16:56:56.194Z,70.10
2022-10-22T16:59:23.004Z,63.33
2022-10-22T17:01:49.837Z,70.07
2022-10-22T17:04:19.818Z,66.90
2022-10-22T17:06:47.067Z,63.20
2022-10-22T17:09:13.874Z,69.93
2022-10-22T17:11:42.709Z,69.13
2022-10-22T17:14:11.618Z,66.07
2022-10-22T17:16:38.367Z,60.17
2022-10-22T17:19:05.221Z,63.23
2022-10-22T17:21:32.117Z,65.57
2022-10-22T17:23:58.946Z,66.47
2022-10-22T17:26:26.882Z,67.23
2022-10-22T17:28:54.229Z,68.37
2022-10-22T17:31:23.175Z,67.83
2022-10-22T17:33:51.852Z,65.80
2022-10-22T17:36:18.692Z,58.00
2022-10-22T17:38:47.302Z,64.00
2022-10-22T17:41:17.542Z,60.73
2022-10-22T17:46:22.122Z,56.77
2022-10-22T17:48:56.060Z,55.50
2022-10-22T17:51:23.295Z,45.83
2022-10-22T17:53:50.824Z,46.77
2022-10-22T17:56:18.472Z,48.70
2022-10-22T17:58:45.181Z,42.10
2022-10-22T18:01:23.991Z,44.83
2022-10-22T18:03:51.702Z,45.43
2022-10-22T18:06:21.729Z,41.93
2022-10-22T18:08:48.643Z,42.23
2022-10-22T18:11:18.761Z,36.90
2022-10-22T18:13:48.608Z,39.63
2022-10-22T18:16:15.705Z,109.67
2022-10-22T18:18:45.421Z,52.00
2022-10-22T18:21:15.590Z,53.90
2022-10-22T18:23:42.703Z,43.93
2022-10-22T18:26:11.552Z,40.53
2022-10-22T18:28:38.891Z,37.87
2022-10-22T18:31:07.209Z,40.97
2022-10-22T18:33:34.576Z,36.23
2022-10-22T18:36:05.711Z,34.50
2022-10-22T18:38:32.984Z,49.57
2022-10-22T18:41:00.584Z,31.10
2022-10-22T18:43:27.935Z,38.07
2022-10-22T18:45:54.714Z,50.97
2022-10-22T18:48:23.693Z,37.60
2022-10-22T18:51:00.934Z,45.63
2022-10-22T18:53:29.089Z,35.10
2022-10-22T18:55:57.001Z,35.37
2022-10-22T18:58:23.850Z,40.40
2022-10-22T19:00:51.695Z,43.33
2022-10-22T19:03:20.201Z,40.77
2022-10-22T19:05:47.521Z,41.57
2022-10-22T19:08:17.156Z,35.90
2022-10-22T19:10:45.773Z,32.97
2022-10-22T19:13:15.927Z,31.47
2022-10-22T19:15:42.796Z,34.80
2022-10-22T19:18:09.442Z,36.17
2022-10-22T19:23:21.272Z,33.03
2022-10-22T19:25:48.084Z,35.00
2022-10-22T19:28:16.276Z,40.73
2022-10-22T19:30:44.742Z,33.40
2022-10-22T19:35:56.645Z,33.73
2022-10-22T19:38:28.113Z,34.43
2022-10-22T19:40:54.915Z,41.73
2022-10-22T19:43:21.685Z,38.53
2022-10-22T19:45:48.534Z,49.77
2022-10-22T19:48:15.342Z,46.80
2022-10-22T19:50:43.218Z,48.97
2022-10-22T19:53:10.581Z,55.83
2022-10-22T19:55:44.547Z,42.23
2022-10-22T19:58:11.809Z,40.43
2022-10-22T20:00:39.697Z,44.80
2022-10-22T20:03:06.655Z,35.47
2022-10-22T20:05:33.380Z,39.37
2022-10-22T20:08:00.228Z,60.93
2022-10-22T20:10:26.931Z,46.47
2022-10-22T20:12:55.141Z,36.30
2022-10-22T20:15:22.030Z,41.43
2022-10-22T20:17:50.215Z,32.40
2022-10-22T20:20:16.932Z,32.17
2022-10-22T20:22:44.208Z,30.43
2022-10-22T20:25:12.003Z,29.47
2022-10-22T20:27:38.885Z,29.67
2022-10-22T20:30:08.290Z,36.00
2022-10-22T20:32:40.411Z,34.80
2022-10-22T20:35:07.781Z,31.07
2022-10-22T20:37:34.497Z,29.43
2022-10-22T20:40:01.535Z,36.43
2022-10-22T20:42:28.428Z,32.13
2022-10-22T20:44:58.294Z,36.63
2022-10-22T20:47:30.502Z,38.53
2022-10-22T20:50:09.582Z,39.23
2022-10-22T20:52:36.646Z,43.63
2022-10-22T20:55:03.565Z,41.33
2022-10-22T20:57:31.895Z,50.40
2022-10-22T20:59:59.756Z,41.10
2022-10-22T21:02:26.606Z,45.50
2022-10-22T21:04:53.387Z,37.50
2022-10-22T21:07:20.217Z,46.97
2022-10-22T21:09:46.876Z,44.73
2022-10-22T21:12:13.781Z,43.90
2022-10-22T21:14:40.601Z,39.60
2022-10-22T21:17:08.262Z,37.60
2022-10-22T21:19:34.901Z,37.97
2022-10-22T21:22:01.685Z,38.20
2022-10-22T21:24:28.485Z,39.43
2022-10-22T21:26:55.676Z,38.10
2022-10-22T21:29:22.504Z,36.07
2022-10-22T21:31:49.271Z,39.33
2022-10-22T21:34:17.359Z,42.87
2022-10-22T21:36:45.022Z,41.60
2022-10-22T21:39:12.321Z,37.63
2022-10-22T21:41:39.112Z,37.67
2022-10-22T21:44:05.890Z,34.10
2022-10-22T21:46:32.773Z,35.93
2022-10-22T21:49:02.098Z,34.57
2022-10-22T21:51:29.735Z,33.37
2022-10-22T21:53:56.585Z,29.10
2022-10-22T21:56:24.257Z,27.03
2022-10-22T21:58:50.973Z,27.87
2022-10-22T22:01:17.827Z,28.23
2022-10-22T22:03:46.666Z,26.97
2022-10-22T22:06:13.470Z,25.13
2022-10-22T22:08:40.162Z,28.40
2022-10-22T22:11:10.546Z,27.10
2022-10-22T22:13:38.593Z,26.07
2022-10-22T22:16:07.777Z,28.30
2022-10-22T22:18:34.614Z,27.50
2022-10-22T22:21:03.669Z,29.30
2022-10-22T22:23:30.371Z,29.80
2022-10-22T22:26:00.338Z,26.47
2022-10-22T22:28:27.711Z,30.83
2022-10-22T22:30:54.358Z,28.80
2022-10-22T22:33:21.041Z,25.73
2022-10-22T22:35:47.687Z,28.80
2022-10-22T22:38:14.912Z,27.50
2022-10-22T22:40:41.532Z,27.77
2022-10-22T22:43:08.621Z,25.97
2022-10-22T22:45:35.686Z,25.40
2022-10-22T22:48:02.774Z,25.60
2022-10-22T22:50:29.632Z,26.67
2022-10-22T22:52:56.564Z,26.07
2022-10-22T22:55:23.187Z,25.00
2022-10-22T22:57:49.946Z,25.53
2022-10-22T23:00:16.692Z,24.33
2022-10-22T23:02:43.700Z,23.60
2022-10-22T23:05:10.675Z,21.07
2022-10-22T23:07:37.382Z,22.03
2022-10-22T23:10:04.060Z,23.33
2022-10-22T23:12:30.817Z,22.63
2022-10-22T23:15:02.038Z,24.87
2022-10-22T23:17:28.957Z,19.97
2022-10-22T23:19:55.657Z,20.73
2022-10-22T23:22:22.429Z,25.70
2022-10-22T23:24:49.040Z,20.43
2022-10-22T23:27:15.731Z,26.17
2022-10-22T23:29:42.352Z,24.37
2022-10-22T23:32:11.219Z,22.20
2022-10-22T23:34:37.888Z,24.57
2022-10-22T23:37:04.561Z,28.03
2022-10-22T23:39:31.216Z,25.50
2022-10-22T23:41:58.088Z,24.03
2022-10-22T23:44:24.750Z,25.87
2022-10-22T23:46:51.484Z,22.60
2022-10-22T23:49:18.132Z,24.67
2022-10-22T23:51:44.876Z,25.27
2022-10-22T23:54:12.861Z,25.70
2022-10-22T23:56:39.546Z,28.03
2022-10-22T23:59:06.186Z,23.87
